createdAt,value
2023-03-22T00:02:04.494Z,3.15
2023-03-22T00:04:31.357Z,3.10
2023-03-22T00:06:58.044Z,3.35
2023-03-22T00:09:24.789Z,3.42
2023-03-22T00:11:51.735Z,3.10
2023-03-22T00:14:19.299Z,3.30
2023-03-22T00:16:49.464Z,3.13
2023-03-22T00:19:17.586Z,3.00
2023-03-22T00:21:44.653Z,2.72
2023-03-22T00:24:11.438Z,3.30
2023-03-22T00:26:38.326Z,2.97
2023-03-22T00:34:57.374Z,3.15
2023-03-22T00:37:24.409Z,3.72
2023-03-22T00:39:51.266Z,3.45
2023-03-22T00:42:17.896Z,3.22
2023-03-22T00:44:44.498Z,3.20
2023-03-22T00:47:11.155Z,3.25
2023-03-22T00:49:37.929Z,3.50
2023-03-22T00:52:04.888Z,3.78
2023-03-22T00:54:31.494Z,3.30
2023-03-22T00:56:58.168Z,3.25
2023-03-22T00:59:24.847Z,3.15
2023-03-22T01:01:58.842Z,3.47
2023-03-22T01:04:26.395Z,3.42
2023-03-22T01:06:59.401Z,3.70
2023-03-22T01:09:29.026Z,3.40
2023-03-22T01:11:59.008Z,3.63
2023-03-22T01:14:26.396Z,3.47
2023-03-22T01:16:57.534Z,3.45
2023-03-22T01:19:24.531Z,3.45
2023-03-22T01:21:51.263Z,3.20
2023-03-22T01:24:18.070Z,3.75
2023-03-22T01:26:44.857Z,3.95
2023-03-22T01:29:12.089Z,3.17
2023-03-22T01:31:39.037Z,3.22
2023-03-22T01:34:05.733Z,3.58
2023-03-22T01:36:32.397Z,3.10
2023-03-22T01:38:59.453Z,3.20
2023-03-22T01:41:26.266Z,3.03
2023-03-22T01:44:15.655Z,3.25
2023-03-22T01:47:40.081Z,3.70
2023-03-22T01:50:07.724Z,3.47
2023-03-22T01:52:34.885Z,3.55
2023-03-22T01:55:09.280Z,3.25
2023-03-22T02:00:46.839Z,3.35
2023-03-22T02:03:49.149Z,3.80
2023-03-22T02:06:17.686Z,3.30
2023-03-22T02:08:46.658Z,3.30
2023-03-22T02:11:23.554Z,3.60
2023-03-22T02:14:27.213Z,2.80
2023-03-22T02:17:28.801Z,3.67
2023-03-22T02:20:07.951Z,3.50
2023-03-22T02:22:53.373Z,3.58
2023-03-22T02:25:48.404Z,3.40
2023-03-22T02:28:20.624Z,3.30
2023-03-22T02:31:02.954Z,3.50
2023-03-22T02:33:36.927Z,3.28
2023-03-22T02:36:22.311Z,3.30
2023-03-22T02:39:28.127Z,4.22
2023-03-22T02:42:07.147Z,3.50
2023-03-22T02:44:39.351Z,3.78
2023-03-22T02:47:16.746Z,3.80
2023-03-22T02:50:17.304Z,3.25
2023-03-22T02:53:12.862Z,3.42
2023-03-22T02:55:44.897Z,3.00
2023-03-22T02:58:19.028Z,3.63
2023-03-22T03:00:49.477Z,2.97
2023-03-22T03:03:18.444Z,3.15
2023-03-22T03:05:48.941Z,3.42
2023-03-22T03:08:17.167Z,3.60
2023-03-22T03:10:45.153Z,3.10
2023-03-22T03:13:13.667Z,3.28
2023-03-22T03:15:43.905Z,3.33
2023-03-22T03:18:39.295Z,3.33
2023-03-22T03:21:17.768Z,3.45
2023-03-22T03:23:51.582Z,2.90
2023-03-22T03:26:33.365Z,3.10
2023-03-22T03:29:29.731Z,2.97
2023-03-22T03:32:15.848Z,2.83
2023-03-22T03:34:57.879Z,3.03
2023-03-22T03:37:34.008Z,3.10
2023-03-22T03:41:11.113Z,3.33
2023-03-22T03:43:39.066Z,2.67
2023-03-22T03:46:07.700Z,3.22
2023-03-22T03:48:36.662Z,3.20
2023-03-22T03:51:03.698Z,2.75
2023-03-22T03:53:31.182Z,2.80
2023-03-22T03:55:58.114Z,3.33
2023-03-22T03:58:30.426Z,3.00
2023-03-22T04:00:58.635Z,3.67
2023-03-22T04:03:50.708Z,3.50
2023-03-22T04:06:34.661Z,3.53
2023-03-22T04:26:42.944Z,3.10
2023-03-22T04:29:25.108Z,3.03
2023-03-22T04:31:57.418Z,3.20
2023-03-22T04:34:32.582Z,3.50
2023-03-22T04:37:02.732Z,3.50
2023-03-22T04:39:36.261Z,3.33
2023-03-22T04:42:22.064Z,3.72
2023-03-22T04:44:55.226Z,3.50
2023-03-22T04:47:22.079Z,3.55
2023-03-22T04:49:48.777Z,3.22
2023-03-22T04:52:16.834Z,3.25
2023-03-22T04:54:50.954Z,3.55
2023-03-22T05:52:17.790Z,3.60
2023-03-22T05:54:57.039Z,3.80
2023-03-22T05:57:23.709Z,3.83
2023-03-22T05:59:53.881Z,3.80
2023-03-22T06:02:26.063Z,3.55
2023-03-22T06:04:52.646Z,4.20
2023-03-22T06:07:21.020Z,3.05
2023-03-22T06:09:52.599Z,3.95
2023-03-22T06:12:24.650Z,3.55
2023-03-22T06:14:58.808Z,3.80
2023-03-22T06:17:44.080Z,3.95
2023-03-22T06:20:14.533Z,3.42
2023-03-22T06:22:48.005Z,4.03
2023-03-22T06:25:16.683Z,3.88
2023-03-22T06:27:45.924Z,3.53
2023-03-22T06:30:12.933Z,3.70
2023-03-22T06:33:00.453Z,4.13
2023-03-22T06:35:27.607Z,3.70
2023-03-22T06:37:54.375Z,3.95
2023-03-22T06:40:21.332Z,3.30
2023-03-22T06:42:48.249Z,3.03
2023-03-22T06:45:17.642Z,2.90
2023-03-22T06:47:45.545Z,3.00
2023-03-22T06:50:12.065Z,2.72
2023-03-22T06:52:53.973Z,3.20
2023-03-22T06:55:20.445Z,3.45
2023-03-22T06:57:46.945Z,3.28
2023-03-22T07:00:14.029Z,3.33
2023-03-22T07:02:40.548Z,3.20
2023-03-22T07:05:22.046Z,3.08
2023-03-22T07:07:48.514Z,3.42
2023-03-22T07:10:15.281Z,3.67
2023-03-22T07:12:41.749Z,3.40
2023-03-22T07:15:12.038Z,3.25
2023-03-22T07:17:48.066Z,2.80
2023-03-22T07:20:14.934Z,3.40
2023-03-22T07:22:41.777Z,3.03
2023-03-22T07:25:08.796Z,2.80
2023-03-22T07:27:36.286Z,2.92
2023-03-22T07:30:09.647Z,2.78
2023-03-22T07:32:40.996Z,3.10
2023-03-22T07:35:10.991Z,3.20
2023-03-22T07:37:39.830Z,2.70
2023-03-22T07:40:15.687Z,2.42
2023-03-22T07:42:42.175Z,2.83
2023-03-22T07:45:35.611Z,2.60
2023-03-22T07:48:22.783Z,2.35
2023-03-22T07:51:14.414Z,2.63
2023-03-22T07:53:41.616Z,2.47
2023-03-22T07:56:08.846Z,2.40
2023-03-22T07:58:36.110Z,2.20
2023-03-22T08:01:08.901Z,2.25
2023-03-22T08:03:56.802Z,2.80
2023-03-22T08:06:42.522Z,1.92
2023-03-22T08:09:09.037Z,2.25
2023-03-22T08:11:36.147Z,2.15
2023-03-22T08:14:02.762Z,2.30
2023-03-22T08:16:32.654Z,2.25
2023-03-22T08:19:00.369Z,2.17
2023-03-22T08:21:29.083Z,1.75
2023-03-22T08:23:56.725Z,2.45
2023-03-22T08:26:41.165Z,1.90
2023-03-22T08:29:16.865Z,1.80
2023-03-22T08:31:46.983Z,1.95
2023-03-22T08:34:13.618Z,2.00
2023-03-22T08:36:40.717Z,2.05
2023-03-22T08:39:08.367Z,1.90
2023-03-22T08:41:43.487Z,2.35
2023-03-22T08:44:10.841Z,2.42
2023-03-22T08:46:37.306Z,2.33
2023-03-22T08:49:04.791Z,2.72
2023-03-22T08:51:35.537Z,2.38
2023-03-22T08:54:11.424Z,2.60
2023-03-22T08:56:52.982Z,2.55
2023-03-22T08:59:38.228Z,2.30
2023-03-22T09:02:31.100Z,2.47
2023-03-22T09:04:58.430Z,2.90
2023-03-22T09:07:27.939Z,2.95
2023-03-22T09:10:05.865Z,2.58
2023-03-22T09:12:35.682Z,2.42
2023-03-22T09:15:02.247Z,2.42
2023-03-22T09:17:30.518Z,2.50
2023-03-22T09:20:11.154Z,2.38
2023-03-22T09:22:40.288Z,2.30
2023-03-22T09:25:12.066Z,2.20
2023-03-22T09:27:41.318Z,2.47
2023-03-22T09:30:08.278Z,2.70
2023-03-22T09:32:35.304Z,2.10
2023-03-22T09:35:03.797Z,2.20
2023-03-22T09:37:39.182Z,2.20
2023-03-22T09:40:07.707Z,2.25
2023-03-22T09:42:42.814Z,1.88
2023-03-22T09:45:21.090Z,2.20
2023-03-22T09:47:51.480Z,1.60
2023-03-22T09:50:30.647Z,1.58
2023-03-22T09:52:57.842Z,1.27
2023-03-22T09:55:37.245Z,1.10
2023-03-22T09:58:07.997Z,1.17
2023-03-22T10:00:40.912Z,1.10
2023-03-22T10:03:34.790Z,1.45
2023-03-22T10:06:13.019Z,1.00
2023-03-22T10:08:47.564Z,0.88
2023-03-22T10:11:24.412Z,1.30
2023-03-22T10:14:05.371Z,1.20
2023-03-22T10:16:34.363Z,1.90
2023-03-22T10:19:44.176Z,1.48
2023-03-22T10:22:12.983Z,1.40
2023-03-22T10:24:41.807Z,1.00
2023-03-22T10:27:15.314Z,1.27
2023-03-22T10:30:08.994Z,1.08
2023-03-22T10:33:03.817Z,1.10
2023-03-22T10:35:31.176Z,1.10
2023-03-22T10:37:59.829Z,1.27
2023-03-22T10:40:29.063Z,1.60
2023-03-22T10:45:24.620Z,1.55
2023-03-22T10:48:01.075Z,1.20
2023-03-22T10:50:33.097Z,1.10
2023-03-22T10:53:17.457Z,1.00
2023-03-22T10:55:44.361Z,1.10
2023-03-22T10:58:12.654Z,1.05
2023-03-22T11:00:47.204Z,1.03
2023-03-22T11:03:27.884Z,1.05
2023-03-22T11:06:14.539Z,1.00
2023-03-22T11:08:42.635Z,1.48
2023-03-22T11:11:30.163Z,1.30
2023-03-22T11:14:05.975Z,1.05
2023-03-22T11:16:53.049Z,1.02
2023-03-22T11:19:28.636Z,0.95
2023-03-22T11:21:57.281Z,1.15
2023-03-22T11:24:26.341Z,1.30
2023-03-22T11:29:40.154Z,1.42
2023-03-22T11:32:21.126Z,1.13
2023-03-22T11:34:47.737Z,1.33
2023-03-22T11:37:18.202Z,1.15
2023-03-22T11:39:51.145Z,1.20
2023-03-22T11:42:19.330Z,1.10
2023-03-22T11:44:45.817Z,1.52
2023-03-22T11:47:13.893Z,1.35
2023-03-22T11:49:45.994Z,1.30
2023-03-22T11:52:26.311Z,1.70
2023-03-22T11:54:54.090Z,1.63
2023-03-22T11:57:24.455Z,1.33
2023-03-22T12:00:00.806Z,1.30
2023-03-22T12:02:30.055Z,1.08
2023-03-22T12:05:11.342Z,1.10
2023-03-22T12:07:38.695Z,0.90
2023-03-22T12:10:13.492Z,1.02
2023-03-22T12:12:46.991Z,1.00
2023-03-22T12:15:18.415Z,1.00
2023-03-22T12:17:56.743Z,1.05
2023-03-22T12:20:35.160Z,1.10
2023-03-22T12:23:02.123Z,1.00
2023-03-22T12:25:32.941Z,1.02
2023-03-22T12:28:02.324Z,1.17
2023-03-22T12:30:31.806Z,0.90
2023-03-22T12:33:04.700Z,0.80
2023-03-22T12:35:33.790Z,0.70
2023-03-22T12:38:07.451Z,0.70
2023-03-22T12:40:41.906Z,0.93
2023-03-22T12:43:15.593Z,0.80
2023-03-22T12:45:56.379Z,0.70
2023-03-22T12:48:45.174Z,0.90
2023-03-22T12:51:14.333Z,0.75
2023-03-22T12:53:55.400Z,0.77
2023-03-22T12:56:25.164Z,0.80
2023-03-22T12:58:54.937Z,0.80
2023-03-22T13:01:37.104Z,0.90
2023-03-22T13:04:27.926Z,1.10
2023-03-22T13:06:57.367Z,0.70
2023-03-22T13:09:29.746Z,1.00
2023-03-22T13:12:18.020Z,0.90
2023-03-22T13:14:56.065Z,0.98
2023-03-22T13:17:22.423Z,0.95
2023-03-22T13:19:57.574Z,0.90
2023-03-22T13:22:27.967Z,0.80
2023-03-22T13:25:08.331Z,1.00
2023-03-22T13:27:59.656Z,0.80
2023-03-22T13:30:34.718Z,1.20
2023-03-22T13:33:13.360Z,1.00
2023-03-22T13:35:52.646Z,0.90
2023-03-22T13:38:24.876Z,0.70
2023-03-22T13:41:28.913Z,0.80
2023-03-22T13:43:57.322Z,0.70
2023-03-22T13:46:37.378Z,0.70
2023-03-22T13:49:04.174Z,0.70
2023-03-22T13:51:33.875Z,0.82
2023-03-22T13:54:06.590Z,0.80
2023-03-22T13:56:41.954Z,0.88
2023-03-22T13:59:33.855Z,0.88
2023-03-22T14:02:11.403Z,0.77
2023-03-22T14:04:44.766Z,0.90
2023-03-22T14:07:26.045Z,1.02
2023-03-22T14:09:58.722Z,1.00
2023-03-22T14:12:36.915Z,0.90
2023-03-22T14:15:05.103Z,0.80
2023-03-22T14:17:37.819Z,1.52
2023-03-22T14:20:10.226Z,0.85
